LEPP/PNA METAR and TAF weather

Enter ICAO airport designator
Station Type Date Time Source
LEPP METAR 2022/06/28 23:30 UTC NOAA

LEPP 282330Z AUTO 31006KT CAVOK 16/13 Q1019


Station Type Date Time Source
LEPP Decoded METAR 2022/06/28 23:30 UTC NOAA

Pamplona / Noain, Spain (LEPP) 42-46N 001-38W 453M
Jun 28, 2022 - 07:30 PM EDT / 2022.06.28 2330 UTC
Wind: from the NW (310 degrees) at 7 MPH (6 KT):0
Visibility: greater than 7 mile(s):0
Temperature: 60 F (16 C)
Dew Point: 55 F (13 C)
Relative Humidity: 82%
Pressure (altimeter): 30.09 in. Hg (1019 hPa)
ob: LEPP 282330Z AUTO 31006KT CAVOK 16/13 Q1019
cycle: 23

Station Type Date Time Source
LEPP TAF 2022/06/28 21:31 UTC NOAA

TAF LEPP 282000Z 2821/2921 34009KT CAVOK TX26/2913Z TN13/2905Z
TEMPO 2913/2919 36015G25KT
TEMPO 2917/2921 BKN010 PROB40
TEMPO 2917/2921 3000 DZ BKN005

Example: see airport list